sensor_id;sensor_type;location;lat;lon;timestamp;pressure;altitude;pressure_sealevel;temperature;humidity
83373;BME280;73281;50.882;5.984;2023-12-20T00:02:08;99234.41;;;8.24;85.30
83373;BME280;73281;50.882;5.984;2023-12-20T00:04:33;99248.22;;;8.23;85.31
83373;BME280;73281;50.882;5.984;2023-12-20T00:06:59;99248.22;;;8.23;85.06
83373;BME280;73281;50.882;5.984;2023-12-20T00:09:24;99260.00;;;8.15;85.12
83373;BME280;73281;50.882;5.984;2023-12-20T00:11:49;99253.41;;;8.12;84.77
83373;BME280;73281;50.882;5.984;2023-12-20T00:14:15;99254.25;;;8.16;84.99
83373;BME280;73281;50.882;5.984;2023-12-20T00:16:40;99250.13;;;8.22;84.61
83373;BME280;73281;50.882;5.984;2023-12-20T00:19:06;99252.47;;;8.24;84.21
83373;BME280;73281;50.882;5.984;2023-12-20T00:21:31;99251.06;;;8.11;84.18
83373;BME280;73281;50.882;5.984;2023-12-20T00:23:57;99252.28;;;8.13;84.45
83373;BME280;73281;50.882;5.984;2023-12-20T00:26:22;99250.56;;;8.02;83.95
83373;BME280;73281;50.882;5.984;2023-12-20T00:28:50;99263.72;;;8.07;83.95
83373;BME280;73281;50.882;5.984;2023-12-20T00:31:16;99276.16;;;8.15;84.00
83373;BME280;73281;50.882;5.984;2023-12-20T00:33:41;99292.72;;;8.13;83.89
83373;BME280;73281;50.882;5.984;2023-12-20T00:36:09;99291.00;;;8.05;84.21
83373;BME280;73281;50.882;5.984;2023-12-20T00:38:34;99306.00;;;8.03;84.49
83373;BME280;73281;50.882;5.984;2023-12-20T00:41:00;99298.22;;;7.98;83.68
83373;BME280;73281;50.882;5.984;2023-12-20T00:43:25;99295.28;;;7.84;82.35
83373;BME280;73281;50.882;5.984;2023-12-20T00:45:51;99308.13;;;7.71;81.37
83373;BME280;73281;50.882;5.984;2023-12-20T00:48:17;99315.25;;;7.60;79.67
83373;BME280;73281;50.882;5.984;2023-12-20T00:50:42;99317.56;;;7.62;79.07
83373;BME280;73281;50.882;5.984;2023-12-20T00:53:08;99318.84;;;7.49;79.28
83373;BME280;73281;50.882;5.984;2023-12-20T00:55:33;99320.28;;;7.43;79.24
83373;BME280;73281;50.882;5.984;2023-12-20T00:57:59;99328.09;;;7.29;78.66
83373;BME280;73281;50.882;5.984;2023-12-20T01:00:25;99344.09;;;7.22;78.87
83373;BME280;73281;50.882;5.984;2023-12-20T01:02:50;99337.00;;;7.14;78.57
83373;BME280;73281;50.882;5.984;2023-12-20T01:05:17;99344.91;;;7.07;78.71
83373;BME280;73281;50.882;5.984;2023-12-20T01:07:43;99339.09;;;7.05;79.07
83373;BME280;73281;50.882;5.984;2023-12-20T01:10:08;99336.16;;;7.10;78.77
83373;BME280;73281;50.882;5.984;2023-12-20T01:12:36;99338.09;;;6.93;79.08
83373;BME280;73281;50.882;5.984;2023-12-20T01:15:01;99335.53;;;6.81;78.92
83373;BME280;73281;50.882;5.984;2023-12-20T01:17:27;99341.63;;;6.97;78.69
83373;BME280;73281;50.882;5.984;2023-12-20T01:19:52;99344.06;;;7.03;78.00
83373;BME280;73281;50.882;5.984;2023-12-20T01:22:18;99357.19;;;6.88;78.71
83373;BME280;73281;50.882;5.984;2023-12-20T01:24:43;99351.88;;;6.92;79.58
83373;BME280;73281;50.882;5.984;2023-12-20T01:27:09;99342.22;;;6.88;79.55
83373;BME280;73281;50.882;5.984;2023-12-20T01:29:34;99345.13;;;6.98;79.74
83373;BME280;73281;50.882;5.984;2023-12-20T01:31:59;99360.28;;;7.06;79.36
83373;BME280;73281;50.882;5.984;2023-12-20T01:34:25;99345.31;;;6.89;79.27
83373;BME280;73281;50.882;5.984;2023-12-20T01:36:50;99330.50;;;6.80;79.88
83373;BME280;73281;50.882;5.984;2023-12-20T01:39:17;99338.69;;;6.68;80.67
83373;BME280;73281;50.882;5.984;2023-12-20T01:41:42;99345.94;;;6.83;80.31
83373;BME280;73281;50.882;5.984;2023-12-20T01:44:08;99334.69;;;6.77;79.99
83373;BME280;73281;50.882;5.984;2023-12-20T01:46:33;99335.63;;;6.85;79.76
83373;BME280;73281;50.882;5.984;2023-12-20T01:48:59;99346.09;;;6.90;79.88
83373;BME280;73281;50.882;5.984;2023-12-20T01:51:24;99349.28;;;6.96;79.73
83373;BME280;73281;50.882;5.984;2023-12-20T01:53:52;99335.63;;;6.85;79.96
83373;BME280;73281;50.882;5.984;2023-12-20T01:56:19;99345.31;;;6.89;79.93
83373;BME280;73281;50.882;5.984;2023-12-20T01:58:46;99348.09;;;6.93;79.21
83373;BME280;73281;50.882;5.984;2023-12-20T02:01:12;99357.78;;;6.97;79.15
83373;BME280;73281;50.882;5.984;2023-12-20T02:03:42;99354.34;;;6.81;79.02
83373;BME280;73281;50.882;5.984;2023-12-20T02:06:08;99355.56;;;6.84;79.42
83373;BME280;73281;50.882;5.984;2023-12-20T02:08:35;99357.16;;;6.69;80.27
83373;BME280;73281;50.882;5.984;2023-12-20T02:11:01;99354.47;;;6.69;79.76
83373;BME280;73281;50.882;5.984;2023-12-20T02:13:26;99359.66;;;6.78;80.17
83373;BME280;73281;50.882;5.984;2023-12-20T02:15:52;99355.06;;;6.78;80.06
83373;BME280;73281;50.882;5.984;2023-12-20T02:18:18;99355.91;;;6.82;79.70
83373;BME280;73281;50.882;5.984;2023-12-20T02:20:44;99363.28;;;6.85;79.86
83373;BME280;73281;50.882;5.984;2023-12-20T02:23:09;99362.59;;;6.88;80.01
83373;BME280;73281;50.882;5.984;2023-12-20T02:25:35;99356.81;;;6.71;80.42
83373;BME280;73281;50.882;5.984;2023-12-20T02:28:01;99341.16;;;6.57;80.31
83373;BME280;73281;50.882;5.984;2023-12-20T02:30:27;99355.22;;;6.70;79.84
83373;BME280;73281;50.882;5.984;2023-12-20T02:32:53;99348.94;;;6.62;79.77
83373;BME280;73281;50.882;5.984;2023-12-20T02:35:19;99374.44;;;6.68;79.55
83373;BME280;73281;50.882;5.984;2023-12-20T02:37:44;99371.66;;;6.65;79.96
83373;BME280;73281;50.882;5.984;2023-12-20T02:40:10;99357.94;;;6.70;80.04
83373;BME280;73281;50.882;5.984;2023-12-20T02:42:35;99356.47;;;6.57;80.54
83373;BME280;73281;50.882;5.984;2023-12-20T02:45:01;99354.59;;;6.57;80.29
83373;BME280;73281;50.882;5.984;2023-12-20T02:47:26;99360.19;;;6.68;79.63
83373;BME280;73281;50.882;5.984;2023-12-20T02:49:52;99363.06;;;6.59;79.61
83373;BME280;73281;50.882;5.984;2023-12-20T02:52:18;99359.69;;;6.62;79.90
83373;BME280;73281;50.882;5.984;2023-12-20T02:54:43;99352.44;;;6.47;79.88
83373;BME280;73281;50.882;5.984;2023-12-20T02:57:09;99351.53;;;6.59;80.09
83373;BME280;73281;50.882;5.984;2023-12-20T02:59:34;99355.34;;;6.58;79.54
83373;BME280;73281;50.882;5.984;2023-12-20T03:01:59;99363.75;;;6.72;79.92
83373;BME280;73281;50.882;5.984;2023-12-20T03:04:25;99367.28;;;6.76;79.60
83373;BME280;73281;50.882;5.984;2023-12-20T03:06:50;99369.63;;;6.77;78.92
83373;BME280;73281;50.882;5.984;2023-12-20T03:09:16;99375.69;;;6.74;78.76
83373;BME280;73281;50.882;5.984;2023-12-20T03:11:41;99367.00;;;6.81;78.27
83373;BME280;73281;50.882;5.984;2023-12-20T03:14:07;99373.34;;;6.73;78.61
83373;BME280;73281;50.882;5.984;2023-12-20T03:16:32;99362.94;;;6.71;78.79
83373;BME280;73281;50.882;5.984;2023-12-20T03:18:58;99368.69;;;6.70;79.41
83373;BME280;73281;50.882;5.984;2023-12-20T03:21:23;99365.06;;;6.62;79.73
83373;BME280;73281;50.882;5.984;2023-12-20T03:23:49;99367.41;;;6.64;79.15
83373;BME280;73281;50.882;5.984;2023-12-20T03:26:14;99359.50;;;6.71;78.63
83373;BME280;73281;50.882;5.984;2023-12-20T03:28:40;99360.72;;;6.73;79.01
83373;BME280;73281;50.882;5.984;2023-12-20T03:31:05;99377.47;;;6.67;79.55
83373;BME280;73281;50.882;5.984;2023-12-20T03:33:31;99359.91;;;6.73;78.72
83373;BME280;73281;50.882;5.984;2023-12-20T03:35:56;99362.94;;;6.71;78.88
83373;BME280;73281;50.882;5.984;2023-12-20T03:38:22;99364.19;;;6.74;78.49
83373;BME280;73281;50.882;5.984;2023-12-20T03:40:49;99366.09;;;6.73;79.20
83373;BME280;73281;50.882;5.984;2023-12-20T03:43:14;99360.53;;;6.66;78.91
83373;BME280;73281;50.882;5.984;2023-12-20T03:45:40;99349.72;;;6.63;78.56
83373;BME280;73281;50.882;5.984;2023-12-20T03:48:06;99362.47;;;6.50;78.48
83373;BME280;73281;50.882;5.984;2023-12-20T03:50:31;99364.81;;;6.52;78.82
83373;BME280;73281;50.882;5.984;2023-12-20T03:52:56;99353.19;;;6.48;79.31
83373;BME280;73281;50.882;5.984;2023-12-20T03:55:22;99346.53;;;6.57;79.13
83373;BME280;73281;50.882;5.984;2023-12-20T03:57:48;99342.72;;;6.43;79.43
83373;BME280;73281;50.882;5.984;2023-12-20T04:00:13;99346.59;;;6.45;79.24
83373;BME280;73281;50.882;5.984;2023-12-20T04:02:40;99346.38;;;6.35;79.08
83373;BME280;73281;50.882;5.984;2023-12-20T04:05:07;99341.06;;;6.38;78.92
83373;BME280;73281;50.882;5.984;2023-12-20T04:07:32;99337.50;;;6.19;79.76
83373;BME280;73281;50.882;5.984;2023-12-20T04:09:58;99342.81;;;6.31;79.74
83373;BME280;73281;50.882;5.984;2023-12-20T04:12:24;99346.81;;;6.21;80.57
83373;BME280;73281;50.882;5.984;2023-12-20T04:14:49;99345.94;;;6.17;80.52
83373;BME280;73281;50.882;5.984;2023-12-20T04:17:17;99347.66;;;6.25;79.88
83373;BME280;73281;50.882;5.984;2023-12-20T04:19:43;99352.19;;;6.21;80.44
83373;BME280;73281;50.882;5.984;2023-12-20T04:22:08;99341.41;;;6.37;79.60
83373;BME280;73281;50.882;5.984;2023-12-20T04:24:34;99351.91;;;6.42;79.60
83373;BME280;73281;50.882;5.984;2023-12-20T04:26:59;99347.84;;;6.32;79.85
83373;BME280;73281;50.882;5.984;2023-12-20T04:29:25;99341.91;;;6.42;79.58
83373;BME280;73281;50.882;5.984;2023-12-20T04:31:50;99335.28;;;6.36;79.57
83373;BME280;73281;50.882;5.984;2023-12-20T04:34:19;99341.16;;;6.42;80.33
83373;BME280;73281;50.882;5.984;2023-12-20T04:36:45;99341.41;;;6.37;79.49
83373;BME280;73281;50.882;5.984;2023-12-20T04:39:11;99351.56;;;6.28;80.71
83373;BME280;73281;50.882;5.984;2023-12-20T04:41:37;99347.50;;;6.34;80.11
83373;BME280;73281;50.882;5.984;2023-12-20T04:44:02;99355.63;;;6.37;79.60
83373;BME280;73281;50.882;5.984;2023-12-20T04:46:28;99356.59;;;6.45;79.96
83373;BME280;73281;50.882;5.984;2023-12-20T04:48:53;99356.66;;;6.48;79.35
83373;BME280;73281;50.882;5.984;2023-12-20T04:51:19;99347.41;;;6.46;79.75
83373;BME280;73281;50.882;5.984;2023-12-20T04:53:44;99358.03;;;6.42;80.23
83373;BME280;73281;50.882;5.984;2023-12-20T04:56:10;99363.59;;;6.49;79.76
83373;BME280;73281;50.882;5.984;2023-12-20T04:58:35;99377.53;;;6.55;79.37
83373;BME280;73281;50.882;5.984;2023-12-20T05:01:00;99345.50;;;6.46;79.81
83373;BME280;73281;50.882;5.984;2023-12-20T05:03:26;99347.47;;;6.49;79.41
83373;BME280;73281;50.882;5.984;2023-12-20T05:05:51;99360.03;;;6.61;78.79
83373;BME280;73281;50.882;5.984;2023-12-20T05:08:16;99364.97;;;6.59;78.60
83373;BME280;73281;50.882;5.984;2023-12-20T05:10:42;99368.28;;;6.52;78.35
83373;BME280;73281;50.882;5.984;2023-12-20T05:13:07;99366.31;;;6.34;79.12
83373;BME280;73281;50.882;5.984;2023-12-20T05:15:33;99390.56;;;6.37;79.65
83373;BME280;73281;50.882;5.984;2023-12-20T05:17:58;99363.88;;;6.44;79.68
83373;BME280;73281;50.882;5.984;2023-12-20T05:20:24;99363.34;;;6.54;79.13
83373;BME280;73281;50.882;5.984;2023-12-20T05:22:49;99362.56;;;6.54;79.36
83373;BME280;73281;50.882;5.984;2023-12-20T05:25:14;99352.16;;;6.37;79.58
83373;BME280;73281;50.882;5.984;2023-12-20T05:27:40;99367.06;;;6.50;79.45
83373;BME280;73281;50.882;5.984;2023-12-20T05:30:06;99343.75;;;6.38;78.82
83373;BME280;73281;50.882;5.984;2023-12-20T05:32:31;99357.97;;;6.54;78.82
83373;BME280;73281;50.882;5.984;2023-12-20T05:34:57;99358.72;;;6.55;78.41
83373;BME280;73281;50.882;5.984;2023-12-20T05:37:22;99348.50;;;6.60;77.96
83373;BME280;73281;50.882;5.984;2023-12-20T05:39:48;99350.41;;;6.60;78.93
83373;BME280;73281;50.882;5.984;2023-12-20T05:42:13;99350.25;;;6.68;77.80
83373;BME280;73281;50.882;5.984;2023-12-20T05:44:38;99354.31;;;6.47;78.34
83373;BME280;73281;50.882;5.984;2023-12-20T05:47:04;99357.28;;;6.57;77.52
83373;BME280;73281;50.882;5.984;2023-12-20T05:49:29;99360.84;;;6.46;78.45
83373;BME280;73281;50.882;5.984;2023-12-20T05:51:55;99356.31;;;6.50;78.81
83373;BME280;73281;50.882;5.984;2023-12-20T05:54:20;99367.31;;;6.60;78.56
83373;BME280;73281;50.882;5.984;2023-12-20T05:56:46;99376.16;;;6.61;77.90
83373;BME280;73281;50.882;5.984;2023-12-20T05:59:12;99384.03;;;6.69;77.95
83373;BME280;73281;50.882;5.984;2023-12-20T06:01:37;99377.41;;;6.32;78.74
83373;BME280;73281;50.882;5.984;2023-12-20T06:04:03;99379.13;;;6.56;78.41
83373;BME280;73281;50.882;5.984;2023-12-20T06:06:29;99375.81;;;6.47;78.25
83373;BME280;73281;50.882;5.984;2023-12-20T06:08:55;99378.69;;;6.54;78.45
83373;BME280;73281;50.882;5.984;2023-12-20T06:11:21;99378.44;;;6.28;78.29
83373;BME280;73281;50.882;5.984;2023-12-20T06:13:46;99372.53;;;6.22;78.88
83373;BME280;73281;50.882;5.984;2023-12-20T06:16:11;99390.03;;;6.32;78.19
83373;BME280;73281;50.882;5.984;2023-12-20T06:18:37;99380.25;;;6.39;78.08
83373;BME280;73281;50.882;5.984;2023-12-20T06:21:03;99374.34;;;6.49;77.31
83373;BME280;73281;50.882;5.984;2023-12-20T06:23:28;99375.13;;;6.50;77.21
83373;BME280;73281;50.882;5.984;2023-12-20T06:25:54;99389.31;;;6.66;76.96
83373;BME280;73281;50.882;5.984;2023-12-20T06:28:19;99382.50;;;6.53;77.34
83373;BME280;73281;50.882;5.984;2023-12-20T06:30:45;99386.66;;;6.50;77.23
83373;BME280;73281;50.882;5.984;2023-12-20T06:33:12;99395.50;;;6.51;77.40
83373;BME280;73281;50.882;5.984;2023-12-20T06:35:38;99378.50;;;6.47;77.75
83373;BME280;73281;50.882;5.984;2023-12-20T06:38:04;99381.19;;;6.47;77.36
83373;BME280;73281;50.882;5.984;2023-12-20T06:40:29;99365.50;;;6.33;77.18
83373;BME280;73281;50.882;5.984;2023-12-20T06:42:55;99386.06;;;6.41;77.58
83373;BME280;73281;50.882;5.984;2023-12-20T06:45:20;99386.16;;;6.45;77.49
83373;BME280;73281;50.882;5.984;2023-12-20T06:47:45;99382.78;;;6.32;77.94
83373;BME280;73281;50.882;5.984;2023-12-20T06:50:11;99381.38;;;6.38;77.68
83373;BME280;73281;50.882;5.984;2023-12-20T06:52:36;99391.69;;;6.36;77.40
83373;BME280;73281;50.882;5.984;2023-12-20T06:55:02;99399.81;;;6.40;77.90
83373;BME280;73281;50.882;5.984;2023-12-20T06:57:29;99410.66;;;6.28;78.02
83373;BME280;73281;50.882;5.984;2023-12-20T06:59:54;99404.78;;;6.38;77.51
83373;BME280;73281;50.882;5.984;2023-12-20T07:02:20;99413.44;;;6.31;77.45
83373;BME280;73281;50.882;5.984;2023-12-20T07:04:47;99397.22;;;6.28;77.75
83373;BME280;73281;50.882;5.984;2023-12-20T07:07:13;99408.91;;;6.35;77.64
83373;BME280;73281;50.882;5.984;2023-12-20T07:09:38;99398.63;;;6.37;77.47
83373;BME280;73281;50.882;5.984;2023-12-20T07:12:04;99390.28;;;6.42;77.67
83373;BME280;73281;50.882;5.984;2023-12-20T07:14:29;99402.88;;;6.23;78.32
83373;BME280;73281;50.882;5.984;2023-12-20T07:16:55;99398.63;;;6.37;78.03
83373;BME280;73281;50.882;5.984;2023-12-20T07:19:20;99402.44;;;6.52;77.42
83373;BME280;73281;50.882;5.984;2023-12-20T07:21:46;99391.88;;;6.43;77.59
83373;BME280;73281;50.882;5.984;2023-12-20T07:24:11;99382.16;;;6.39;77.37
83373;BME280;73281;50.882;5.984;2023-12-20T07:26:37;99407.13;;;6.39;77.34
83373;BME280;73281;50.882;5.984;2023-12-20T07:29:03;99405.47;;;6.35;77.85
83373;BME280;73281;50.882;5.984;2023-12-20T07:31:29;99393.75;;;6.27;78.03
83373;BME280;73281;50.882;5.984;2023-12-20T07:33:55;99398.63;;;6.37;77.58
83373;BME280;73281;50.882;5.984;2023-12-20T07:36:20;99399.06;;;6.24;77.64
83373;BME280;73281;50.882;5.984;2023-12-20T07:38:46;99407.38;;;6.34;78.24
83373;BME280;73281;50.882;5.984;2023-12-20T07:41:12;99400.94;;;6.23;77.75
83373;BME280;73281;50.882;5.984;2023-12-20T07:43:38;99403.44;;;6.01;78.37
83373;BME280;73281;50.882;5.984;2023-12-20T07:46:07;99407.28;;;6.15;78.09
83373;BME280;73281;50.882;5.984;2023-12-20T07:48:34;99400.78;;;6.32;77.92
83373;BME280;73281;50.882;5.984;2023-12-20T07:51:00;99388.81;;;6.14;77.81
83373;BME280;73281;50.882;5.984;2023-12-20T07:53:25;99391.84;;;6.28;77.73
83373;BME280;73281;50.882;5.984;2023-12-20T07:55:51;99400.84;;;6.35;77.39
83373;BME280;73281;50.882;5.984;2023-12-20T07:58:17;99395.84;;;6.34;77.86
83373;BME280;73281;50.882;5.984;2023-12-20T08:00:43;99393.69;;;6.24;77.80
83373;BME280;73281;50.882;5.984;2023-12-20T08:03:09;99406.44;;;6.27;77.28
83373;BME280;73281;50.882;5.984;2023-12-20T08:05:34;99398.59;;;6.22;77.48
83373;BME280;73281;50.882;5.984;2023-12-20T08:08:00;99394.97;;;6.14;77.87
83373;BME280;73281;50.882;5.984;2023-12-20T08:10:25;99389.25;;;6.16;77.73
83373;BME280;73281;50.882;5.984;2023-12-20T08:12:50;99384.22;;;6.14;78.30
83373;BME280;73281;50.882;5.984;2023-12-20T08:15:16;99387.41;;;6.04;78.08
83373;BME280;73281;50.882;5.984;2023-12-20T08:17:41;99402.03;;;5.91;79.02
83373;BME280;73281;50.882;5.984;2023-12-20T08:20:07;99389.38;;;5.92;77.95
83373;BME280;73281;50.882;5.984;2023-12-20T08:22:33;99390.19;;;5.92;78.53
83373;BME280;73281;50.882;5.984;2023-12-20T08:24:58;99386.97;;;6.02;77.54
83373;BME280;73281;50.882;5.984;2023-12-20T08:27:24;99374.97;;;6.12;77.20
83373;BME280;73281;50.882;5.984;2023-12-20T08:29:51;99379.28;;;6.16;77.37
83373;BME280;73281;50.882;5.984;2023-12-20T08:32:16;99385.88;;;6.03;77.71
83373;BME280;73281;50.882;5.984;2023-12-20T08:34:41;99378.59;;;6.19;77.40
83373;BME280;73281;50.882;5.984;2023-12-20T08:37:07;99381.81;;;6.25;77.97
83373;BME280;73281;50.882;5.984;2023-12-20T08:39:32;99379.63;;;6.30;77.02
83373;BME280;73281;50.882;5.984;2023-12-20T08:41:58;99387.88;;;6.37;77.55
83373;BME280;73281;50.882;5.984;2023-12-20T08:44:24;99390.84;;;6.32;77.16
83373;BME280;73281;50.882;5.984;2023-12-20T08:46:49;99394.09;;;6.41;77.32
83373;BME280;73281;50.882;5.984;2023-12-20T08:49:15;99390.03;;;6.47;76.64
83373;BME280;73281;50.882;5.984;2023-12-20T08:51:40;99396.38;;;6.39;76.51
83373;BME280;73281;50.882;5.984;2023-12-20T08:54:06;99390.03;;;6.47;76.31
83373;BME280;73281;50.882;5.984;2023-12-20T08:56:33;99390.22;;;6.39;76.39
83373;BME280;73281;50.882;5.984;2023-12-20T08:58:59;99403.66;;;6.39;77.21
83373;BME280;73281;50.882;5.984;2023-12-20T09:01:24;99386.50;;;6.28;76.89
83373;BME280;73281;50.882;5.984;2023-12-20T09:03:49;99392.56;;;6.40;76.15
83373;BME280;73281;50.882;5.984;2023-12-20T09:06:15;99414.75;;;6.37;76.55
83373;BME280;73281;50.882;5.984;2023-12-20T09:08:41;99399.25;;;6.46;76.49
83373;BME280;73281;50.882;5.984;2023-12-20T09:11:06;99392.72;;;6.47;76.29
83373;BME280;73281;50.882;5.984;2023-12-20T09:13:32;99409.97;;;6.62;75.90
83373;BME280;73281;50.882;5.984;2023-12-20T09:15:57;99396.69;;;6.53;75.92
83373;BME280;73281;50.882;5.984;2023-12-20T09:18:23;99405.38;;;6.47;76.29
83373;BME280;73281;50.882;5.984;2023-12-20T09:20:48;99406.78;;;6.41;75.58
83373;BME280;73281;50.882;5.984;2023-12-20T09:23:14;99410.00;;;6.46;76.94
83373;BME280;73281;50.882;5.984;2023-12-20T09:25:39;99417.09;;;6.54;75.99
83373;BME280;73281;50.882;5.984;2023-12-20T09:28:05;99423.06;;;6.48;76.09
83373;BME280;73281;50.882;5.984;2023-12-20T09:30:30;99406.75;;;6.56;76.78
83373;BME280;73281;50.882;5.984;2023-12-20T09:32:57;99402.75;;;6.66;76.03
83373;BME280;73281;50.882;5.984;2023-12-20T09:35:22;99397.91;;;6.71;75.64
83373;BME280;73281;50.882;5.984;2023-12-20T09:37:48;99398.25;;;6.70;75.79
83373;BME280;73281;50.882;5.984;2023-12-20T09:40:13;99413.97;;;6.68;74.76
83373;BME280;73281;50.882;5.984;2023-12-20T09:45:14;99397.66;;;6.61;75.92
83373;BME280;73281;50.882;5.984;2023-12-20T09:47:43;99396.34;;;6.70;75.78
83373;BME280;73281;50.882;5.984;2023-12-20T09:50:09;99397.13;;;6.71;75.64
83373;BME280;73281;50.882;5.984;2023-12-20T09:52:36;99392.72;;;6.63;76.23
83373;BME280;73281;50.882;5.984;2023-12-20T09:55:03;99392.53;;;6.71;76.58
83373;BME280;73281;50.882;5.984;2023-12-20T09:57:31;99381.25;;;6.66;76.13
83373;BME280;73281;50.882;5.984;2023-12-20T09:59:57;99392.97;;;6.73;75.83
83373;BME280;73281;50.882;5.984;2023-12-20T10:02:25;99390.28;;;6.73;76.55
83373;BME280;73281;50.882;5.984;2023-12-20T10:04:55;99389.59;;;6.76;76.12
83373;BME280;73281;50.882;5.984;2023-12-20T10:07:20;99384.38;;;6.83;76.22
83373;BME280;73281;50.882;5.984;2023-12-20T10:09:47;99396.44;;;6.74;75.57
83373;BME280;73281;50.882;5.984;2023-12-20T10:12:12;99399.09;;;6.89;75.43
83373;BME280;73281;50.882;5.984;2023-12-20T10:14:41;99388.28;;;6.70;75.91
83373;BME280;73281;50.882;5.984;2023-12-20T10:17:06;99390.50;;;6.84;75.73
83373;BME280;73281;50.882;5.984;2023-12-20T10:19:32;99375.44;;;6.79;75.46
83373;BME280;73281;50.882;5.984;2023-12-20T10:22:01;99388.16;;;6.82;75.98
83373;BME280;73281;50.882;5.984;2023-12-20T10:24:30;99381.63;;;6.99;75.40
83373;BME280;73281;50.882;5.984;2023-12-20T10:27:07;99378.88;;;6.96;75.45
83373;BME280;73281;50.882;5.984;2023-12-20T10:29:33;99373.31;;;7.04;75.23
83373;BME280;73281;50.882;5.984;2023-12-20T10:31:59;99362.47;;;7.01;75.35
83373;BME280;73281;50.882;5.984;2023-12-20T10:34:25;99366.81;;;6.89;75.44
83373;BME280;73281;50.882;5.984;2023-12-20T10:36:51;99342.41;;;6.79;75.40
83373;BME280;73281;50.882;5.984;2023-12-20T10:39:17;99354.31;;;6.97;75.61
83373;BME280;73281;50.882;5.984;2023-12-20T10:41:44;99337.19;;;7.05;73.71
83373;BME280;73281;50.882;5.984;2023-12-20T10:44:11;99343.47;;;6.93;74.26
83373;BME280;73281;50.882;5.984;2023-12-20T10:46:39;99329.31;;;6.97;74.17
83373;BME280;73281;50.882;5.984;2023-12-20T10:49:06;99339.59;;;7.10;74.06
83373;BME280;73281;50.882;5.984;2023-12-20T10:51:33;99343.53;;;7.13;75.01
83373;BME280;73281;50.882;5.984;2023-12-20T10:54:00;99346.56;;;7.11;75.32
83373;BME280;73281;50.882;5.984;2023-12-20T10:56:27;99358.22;;;7.19;74.81
83373;BME280;73281;50.882;5.984;2023-12-20T10:58:57;99343.09;;;7.11;74.03
83373;BME280;73281;50.882;5.984;2023-12-20T11:01:28;99343.88;;;7.11;75.20
83373;BME280;73281;50.882;5.984;2023-12-20T11:03:54;99351.59;;;7.13;73.70
83373;BME280;73281;50.882;5.984;2023-12-20T11:14:08;99355.97;;;7.21;74.19
83373;BME280;73281;50.882;5.984;2023-12-20T11:16:38;99359.22;;;7.11;74.58
83373;BME280;73281;50.882;5.984;2023-12-20T11:19:06;99347.66;;;7.10;74.34
83373;BME280;73281;50.882;5.984;2023-12-20T11:21:32;99337.41;;;7.16;73.98
83373;BME280;73281;50.882;5.984;2023-12-20T11:23:59;99343.97;;;6.99;74.71
83373;BME280;73281;50.882;5.984;2023-12-20T11:26:28;99337.00;;;7.14;75.34
83373;BME280;73281;50.882;5.984;2023-12-20T11:29:31;99344.22;;;7.10;75.26
83373;BME280;73281;50.882;5.984;2023-12-20T11:32:04;99350.88;;;7.16;74.18
83373;BME280;73281;50.882;5.984;2023-12-20T11:34:50;99332.81;;;6.97;74.06
83373;BME280;73281;50.882;5.984;2023-12-20T11:37:16;99335.00;;;7.11;75.05
83373;BME280;73281;50.882;5.984;2023-12-20T11:39:43;99345.97;;;7.21;74.03
83373;BME280;73281;50.882;5.984;2023-12-20T11:42:10;99323.91;;;7.12;74.24
83373;BME280;73281;50.882;5.984;2023-12-20T11:44:36;99327.72;;;7.30;73.95
83373;BME280;73281;50.882;5.984;2023-12-20T11:47:03;99318.97;;;7.33;73.49
83373;BME280;73281;50.882;5.984;2023-12-20T11:49:28;99335.84;;;7.34;73.32
83373;BME280;73281;50.882;5.984;2023-12-20T11:51:56;99316.31;;;7.18;74.11
83373;BME280;73281;50.882;5.984;2023-12-20T11:54:22;99322.06;;;7.35;73.94
83373;BME280;73281;50.882;5.984;2023-12-20T11:56:47;99307.47;;;7.17;73.62
83373;BME280;73281;50.882;5.984;2023-12-20T11:59:13;99307.56;;;7.21;74.90
83373;BME280;73281;50.882;5.984;2023-12-20T12:01:39;99296.16;;;7.27;74.31
83373;BME280;73281;50.882;5.984;2023-12-20T12:04:07;99285.72;;;7.26;74.27
83373;BME280;73281;50.882;5.984;2023-12-20T12:06:33;99293.50;;;7.31;74.92
83373;BME280;73281;50.882;5.984;2023-12-20T12:08:59;99293.66;;;7.38;74.00
83373;BME280;73281;50.882;5.984;2023-12-20T12:11:25;99291.75;;;7.38;74.44
83373;BME280;73281;50.882;5.984;2023-12-20T12:13:50;99288.75;;;7.43;74.42
83373;BME280;73281;50.882;5.984;2023-12-20T12:16:20;99275.25;;;7.40;74.26
83373;BME280;73281;50.882;5.984;2023-12-20T12:18:45;99304.28;;;7.50;73.78
83373;BME280;73281;50.882;5.984;2023-12-20T12:21:19;99287.28;;;7.46;73.72
83373;BME280;73281;50.882;5.984;2023-12-20T12:23:45;99281.34;;;7.37;74.58
83373;BME280;73281;50.882;5.984;2023-12-20T12:26:11;99273.34;;;7.40;75.02
83373;BME280;73281;50.882;5.984;2023-12-20T12:28:37;99270.34;;;7.45;74.05
83373;BME280;73281;50.882;5.984;2023-12-20T12:31:04;99274.81;;;7.57;74.03
83373;BME280;73281;50.882;5.984;2023-12-20T12:33:30;99272.16;;;7.60;73.29
83373;BME280;73281;50.882;5.984;2023-12-20T12:35:55;99265.38;;;7.47;73.84
83373;BME280;73281;50.882;5.984;2023-12-20T12:38:21;99264.09;;;7.60;73.42
83373;BME280;73281;50.882;5.984;2023-12-20T12:40:47;99254.88;;;7.61;73.59
83373;BME280;73281;50.882;5.984;2023-12-20T12:43:12;99258.75;;;7.64;74.03
83373;BME280;73281;50.882;5.984;2023-12-20T12:45:38;99259.16;;;7.43;74.63
83373;BME280;73281;50.882;5.984;2023-12-20T12:48:04;99269.47;;;7.60;74.47
83373;BME280;73281;50.882;5.984;2023-12-20T12:50:30;99254.03;;;7.57;74.46
83373;BME280;73281;50.882;5.984;2023-12-20T12:52:56;99259.00;;;7.55;75.07
83373;BME280;73281;50.882;5.984;2023-12-20T12:55:21;99260.25;;;7.61;75.28
83373;BME280;73281;50.882;5.984;2023-12-20T12:57:47;99236.44;;;7.63;75.37
83373;BME280;73281;50.882;5.984;2023-12-20T13:00:12;99256.13;;;7.67;76.58
83373;BME280;73281;50.882;5.984;2023-12-20T13:02:39;99245.06;;;7.50;76.79
83373;BME280;73281;50.882;5.984;2023-12-20T13:05:07;99253.84;;;7.47;76.75
83373;BME280;73281;50.882;5.984;2023-12-20T13:07:33;99257.50;;;7.58;76.92
83373;BME280;73281;50.882;5.984;2023-12-20T13:09:58;99255.41;;;7.48;77.45
83373;BME280;73281;50.882;5.984;2023-12-20T13:12:24;99264.13;;;7.41;78.48
83373;BME280;73281;50.882;5.984;2023-12-20T13:14:49;99255.00;;;7.27;77.54